sensor_id;sensor_type;location;lat;lon;timestamp;temperature;humidity
39931;DHT22;26635;-35.248;149.138;2022-07-25T00:02:10;9.00;96.20
39931;DHT22;26635;-35.248;149.138;2022-07-25T00:04:43;9.00;96.30
39931;DHT22;26635;-35.248;149.138;2022-07-25T00:07:14;9.10;96.40
39931;DHT22;26635;-35.248;149.138;2022-07-25T00:09:45;9.10;96.30
39931;DHT22;26635;-35.248;149.138;2022-07-25T00:12:41;9.10;96.20
39931;DHT22;26635;-35.248;149.138;2022-07-25T00:15:12;9.20;96.00
39931;DHT22;26635;-35.248;149.138;2022-07-25T00:17:49;9.30;95.90
39931;DHT22;26635;-35.248;149.138;2022-07-25T00:20:20;9.30;96.00
39931;DHT22;26635;-35.248;149.138;2022-07-25T00:22:51;9.30;95.80
39931;DHT22;26635;-35.248;149.138;2022-07-25T00:25:22;9.40;95.60
39931;DHT22;26635;-35.248;149.138;2022-07-25T00:27:53;9.40;95.60
39931;DHT22;26635;-35.248;149.138;2022-07-25T00:30:24;9.50;95.70
39931;DHT22;26635;-35.248;149.138;2022-07-25T00:32:54;9.50;95.60
39931;DHT22;26635;-35.248;149.138;2022-07-25T00:36:01;9.60;95.60
39931;DHT22;26635;-35.248;149.138;2022-07-25T00:38:43;9.70;95.60
39931;DHT22;26635;-35.248;149.138;2022-07-25T00:41:24;9.70;95.50
39931;DHT22;26635;-35.248;149.138;2022-07-25T00:44:20;9.80;95.50
39931;DHT22;26635;-35.248;149.138;2022-07-25T00:46:53;9.90;94.70
39931;DHT22;26635;-35.248;149.138;2022-07-25T00:49:25;9.90;94.70
39931;DHT22;26635;-35.248;149.138;2022-07-25T00:51:56;9.90;94.70
39931;DHT22;26635;-35.248;149.138;2022-07-25T00:54:27;10.00;94.50
39931;DHT22;26635;-35.248;149.138;2022-07-25T00:57:01;10.00;94.30
39931;DHT22;26635;-35.248;149.138;2022-07-25T00:59:31;10.00;94.40
39931;DHT22;26635;-35.248;149.138;2022-07-25T01:02:02;10.00;94.70
39931;DHT22;26635;-35.248;149.138;2022-07-25T01:04:43;10.10;94.80
39931;DHT22;26635;-35.248;149.138;2022-07-25T01:07:13;10.20;94.50
39931;DHT22;26635;-35.248;149.138;2022-07-25T01:09:44;10.20;94.30
39931;DHT22;26635;-35.248;149.138;2022-07-25T01:12:15;10.30;94.40
39931;DHT22;26635;-35.248;149.138;2022-07-25T01:14:45;10.40;94.50
39931;DHT22;26635;-35.248;149.138;2022-07-25T01:17:17;10.50;94.10
39931;DHT22;26635;-35.248;149.138;2022-07-25T01:19:47;10.60;94.30
39931;DHT22;26635;-35.248;149.138;2022-07-25T01:22:19;10.70;93.90
39931;DHT22;26635;-35.248;149.138;2022-07-25T01:25:05;10.80;93.90
39931;DHT22;26635;-35.248;149.138;2022-07-25T01:27:47;10.80;93.70
39931;DHT22;26635;-35.248;149.138;2022-07-25T01:30:24;11.00;93.60
39931;DHT22;26635;-35.248;149.138;2022-07-25T01:32:58;11.10;93.20
39931;DHT22;26635;-35.248;149.138;2022-07-25T01:35:34;11.20;93.20
39931;DHT22;26635;-35.248;149.138;2022-07-25T01:38:10;11.30;92.90
39931;DHT22;26635;-35.248;149.138;2022-07-25T01:40:42;11.50;93.00
39931;DHT22;26635;-35.248;149.138;2022-07-25T01:43:18;11.60;92.70
39931;DHT22;26635;-35.248;149.138;2022-07-25T01:45:51;11.70;92.60
39931;DHT22;26635;-35.248;149.138;2022-07-25T01:48:22;11.80;92.40
39931;DHT22;26635;-35.248;149.138;2022-07-25T01:50:55;11.90;92.10
39931;DHT22;26635;-35.248;149.138;2022-07-25T01:53:31;12.00;92.20
39931;DHT22;26635;-35.248;149.138;2022-07-25T01:56:07;12.00;91.80
39931;DHT22;26635;-35.248;149.138;2022-07-25T01:58:38;12.10;91.80
39931;DHT22;26635;-35.248;149.138;2022-07-25T02:01:11;12.20;91.50
39931;DHT22;26635;-35.248;149.138;2022-07-25T02:04:15;12.20;91.40
39931;DHT22;26635;-35.248;149.138;2022-07-25T02:06:46;12.20;91.60
39931;DHT22;26635;-35.248;149.138;2022-07-25T02:09:16;12.30;91.30
39931;DHT22;26635;-35.248;149.138;2022-07-25T02:11:47;12.20;91.00
39931;DHT22;26635;-35.248;149.138;2022-07-25T02:14:22;12.20;91.30
39931;DHT22;26635;-35.248;149.138;2022-07-25T02:16:53;12.20;91.10
39931;DHT22;26635;-35.248;149.138;2022-07-25T02:19:31;12.40;91.90
39931;DHT22;26635;-35.248;149.138;2022-07-25T02:22:05;12.40;91.10
39931;DHT22;26635;-35.248;149.138;2022-07-25T02:24:39;12.50;90.90
39931;DHT22;26635;-35.248;149.138;2022-07-25T02:27:10;12.60;90.80
39931;DHT22;26635;-35.248;149.138;2022-07-25T02:29:40;12.70;90.50
39931;DHT22;26635;-35.248;149.138;2022-07-25T02:32:12;12.70;90.60
39931;DHT22;26635;-35.248;149.138;2022-07-25T02:34:45;12.80;90.50
39931;DHT22;26635;-35.248;149.138;2022-07-25T02:37:16;12.90;89.40
39931;DHT22;26635;-35.248;149.138;2022-07-25T02:39:46;12.90;90.00
39931;DHT22;26635;-35.248;149.138;2022-07-25T02:42:16;13.00;90.00
39931;DHT22;26635;-35.248;149.138;2022-07-25T02:44:47;13.10;89.40
39931;DHT22;26635;-35.248;149.138;2022-07-25T02:47:18;13.10;88.50
39931;DHT22;26635;-35.248;149.138;2022-07-25T02:49:49;13.20;89.40
39931;DHT22;26635;-35.248;149.138;2022-07-25T02:52:19;13.30;90.10
39931;DHT22;26635;-35.248;149.138;2022-07-25T02:54:57;13.30;87.50
39931;DHT22;26635;-35.248;149.138;2022-07-25T02:57:27;13.40;88.50
39931;DHT22;26635;-35.248;149.138;2022-07-25T02:59:58;13.40;87.50
39931;DHT22;26635;-35.248;149.138;2022-07-25T03:02:28;13.40;87.30
39931;DHT22;26635;-35.248;149.138;2022-07-25T03:04:59;13.50;87.50
39931;DHT22;26635;-35.248;149.138;2022-07-25T03:07:29;13.50;86.50
39931;DHT22;26635;-35.248;149.138;2022-07-25T03:10:00;13.60;87.10
39931;DHT22;26635;-35.248;149.138;2022-07-25T03:12:38;13.70;86.70
39931;DHT22;26635;-35.248;149.138;2022-07-25T03:15:10;13.70;86.50
39931;DHT22;26635;-35.248;149.138;2022-07-25T03:17:42;13.60;86.60
39931;DHT22;26635;-35.248;149.138;2022-07-25T03:20:13;13.60;86.50
39931;DHT22;26635;-35.248;149.138;2022-07-25T03:22:43;13.50;86.70
39931;DHT22;26635;-35.248;149.138;2022-07-25T03:25:15;13.50;87.30
39931;DHT22;26635;-35.248;149.138;2022-07-25T03:27:49;13.50;87.40
39931;DHT22;26635;-35.248;149.138;2022-07-25T03:30:20;13.50;88.40
39931;DHT22;26635;-35.248;149.138;2022-07-25T03:32:51;13.50;88.60
39931;DHT22;26635;-35.248;149.138;2022-07-25T03:36:02;13.50;88.20
39931;DHT22;26635;-35.248;149.138;2022-07-25T03:38:33;13.50;87.00
39931;DHT22;26635;-35.248;149.138;2022-07-25T03:41:04;13.60;87.40
39931;DHT22;26635;-35.248;149.138;2022-07-25T03:43:36;13.60;86.90
39931;DHT22;26635;-35.248;149.138;2022-07-25T03:46:10;13.70;87.50
39931;DHT22;26635;-35.248;149.138;2022-07-25T03:48:42;13.70;86.60
39931;DHT22;26635;-35.248;149.138;2022-07-25T03:51:16;13.80;87.30
39931;DHT22;26635;-35.248;149.138;2022-07-25T03:53:48;13.90;87.70
39931;DHT22;26635;-35.248;149.138;2022-07-25T03:57:13;14.00;87.90
39931;DHT22;26635;-35.248;149.138;2022-07-25T03:59:48;14.10;86.80
39931;DHT22;26635;-35.248;149.138;2022-07-25T04:02:33;14.10;85.70
39931;DHT22;26635;-35.248;149.138;2022-07-25T04:05:07;14.30;85.20
39931;DHT22;26635;-35.248;149.138;2022-07-25T04:07:51;14.40;85.50
39931;DHT22;26635;-35.248;149.138;2022-07-25T04:14:09;14.50;84.20
39931;DHT22;26635;-35.248;149.138;2022-07-25T04:16:55;14.60;84.80
39931;DHT22;26635;-35.248;149.138;2022-07-25T04:19:26;14.60;84.50
39931;DHT22;26635;-35.248;149.138;2022-07-25T04:21:56;14.60;85.00
39931;DHT22;26635;-35.248;149.138;2022-07-25T04:24:27;14.60;85.20
39931;DHT22;26635;-35.248;149.138;2022-07-25T04:27:10;14.60;84.70
39931;DHT22;26635;-35.248;149.138;2022-07-25T04:29:41;14.40;84.70
39931;DHT22;26635;-35.248;149.138;2022-07-25T04:32:12;14.30;84.30
39931;DHT22;26635;-35.248;149.138;2022-07-25T04:34:50;14.10;85.10
39931;DHT22;26635;-35.248;149.138;2022-07-25T04:37:22;14.10;85.30
39931;DHT22;26635;-35.248;149.138;2022-07-25T04:39:54;14.00;86.50
39931;DHT22;26635;-35.248;149.138;2022-07-25T04:42:24;14.00;86.70
39931;DHT22;26635;-35.248;149.138;2022-07-25T04:44:55;14.10;86.80
39931;DHT22;26635;-35.248;149.138;2022-07-25T04:47:29;14.10;86.30
39931;DHT22;26635;-35.248;149.138;2022-07-25T04:50:13;14.00;85.10
39931;DHT22;26635;-35.248;149.138;2022-07-25T04:52:44;14.00;85.10
39931;DHT22;26635;-35.248;149.138;2022-07-25T04:55:20;14.00;86.50
39931;DHT22;26635;-35.248;149.138;2022-07-25T04:57:59;14.00;84.70
39931;DHT22;26635;-35.248;149.138;2022-07-25T05:00:43;14.20;84.80
39931;DHT22;26635;-35.248;149.138;2022-07-25T05:03:40;14.30;83.50
39931;DHT22;26635;-35.248;149.138;2022-07-25T05:06:29;14.40;82.20
39931;DHT22;26635;-35.248;149.138;2022-07-25T05:09:37;14.40;82.20
39931;DHT22;26635;-35.248;149.138;2022-07-25T05:13:07;14.40;79.40
39931;DHT22;26635;-35.248;149.138;2022-07-25T05:16:33;14.40;80.00
39931;DHT22;26635;-35.248;149.138;2022-07-25T05:19:38;14.30;79.40
39931;DHT22;26635;-35.248;149.138;2022-07-25T05:22:50;14.30;81.10
39931;DHT22;26635;-35.248;149.138;2022-07-25T05:25:36;14.20;80.50
39931;DHT22;26635;-35.248;149.138;2022-07-25T05:28:07;14.10;80.60
39931;DHT22;26635;-35.248;149.138;2022-07-25T05:30:39;14.10;81.20
39931;DHT22;26635;-35.248;149.138;2022-07-25T05:33:13;14.10;81.10
39931;DHT22;26635;-35.248;149.138;2022-07-25T05:35:46;14.10;81.50
39931;DHT22;26635;-35.248;149.138;2022-07-25T05:38:20;14.10;81.70
39931;DHT22;26635;-35.248;149.138;2022-07-25T05:40:51;14.10;80.60
39931;DHT22;26635;-35.248;149.138;2022-07-25T05:43:26;14.10;81.00
39931;DHT22;26635;-35.248;149.138;2022-07-25T05:46:00;14.20;81.00
39931;DHT22;26635;-35.248;149.138;2022-07-25T05:48:31;14.20;81.20
39931;DHT22;26635;-35.248;149.138;2022-07-25T05:51:04;14.20;81.60
39931;DHT22;26635;-35.248;149.138;2022-07-25T05:53:57;14.10;80.50
39931;DHT22;26635;-35.248;149.138;2022-07-25T05:57:13;14.10;81.10
39931;DHT22;26635;-35.248;149.138;2022-07-25T06:00:17;14.00;81.20
39931;DHT22;26635;-35.248;149.138;2022-07-25T06:07:14;13.80;81.60
39931;DHT22;26635;-35.248;149.138;2022-07-25T06:09:57;13.70;82.70
39931;DHT22;26635;-35.248;149.138;2022-07-25T06:12:40;13.60;82.80
39931;DHT22;26635;-35.248;149.138;2022-07-25T06:15:31;13.50;83.40
39931;DHT22;26635;-35.248;149.138;2022-07-25T06:18:01;13.50;83.50
39931;DHT22;26635;-35.248;149.138;2022-07-25T06:20:37;13.40;83.80
39931;DHT22;26635;-35.248;149.138;2022-07-25T06:23:11;13.40;85.00
39931;DHT22;26635;-35.248;149.138;2022-07-25T06:25:42;13.30;85.00
39931;DHT22;26635;-35.248;149.138;2022-07-25T06:28:20;13.30;84.80
39931;DHT22;26635;-35.248;149.138;2022-07-25T06:30:51;13.30;85.00
39931;DHT22;26635;-35.248;149.138;2022-07-25T06:33:44;13.20;84.90
39931;DHT22;26635;-35.248;149.138;2022-07-25T06:36:14;13.30;84.80
39931;DHT22;26635;-35.248;149.138;2022-07-25T06:38:45;13.30;85.10
39931;DHT22;26635;-35.248;149.138;2022-07-25T06:41:16;13.20;85.00
39931;DHT22;26635;-35.248;149.138;2022-07-25T06:43:48;13.20;84.90
39931;DHT22;26635;-35.248;149.138;2022-07-25T06:46:19;13.20;85.30
39931;DHT22;26635;-35.248;149.138;2022-07-25T06:48:50;13.10;85.50
39931;DHT22;26635;-35.248;149.138;2022-07-25T06:51:23;13.00;85.70
39931;DHT22;26635;-35.248;149.138;2022-07-25T06:53:54;13.00;86.30
39931;DHT22;26635;-35.248;149.138;2022-07-25T06:56:25;12.80;86.80
39931;DHT22;26635;-35.248;149.138;2022-07-25T06:59:00;12.70;87.00
39931;DHT22;26635;-35.248;149.138;2022-07-25T07:01:30;12.70;87.60
39931;DHT22;26635;-35.248;149.138;2022-07-25T07:04:02;12.60;87.90
39931;DHT22;26635;-35.248;149.138;2022-07-25T07:06:35;12.50;88.00
39931;DHT22;26635;-35.248;149.138;2022-07-25T07:09:10;12.40;88.40
39931;DHT22;26635;-35.248;149.138;2022-07-25T07:11:42;12.30;88.60
39931;DHT22;26635;-35.248;149.138;2022-07-25T07:14:13;12.20;89.20
39931;DHT22;26635;-35.248;149.138;2022-07-25T07:16:43;12.20;89.70
39931;DHT22;26635;-35.248;149.138;2022-07-25T07:19:14;12.10;90.00
39931;DHT22;26635;-35.248;149.138;2022-07-25T07:21:45;12.00;90.20
39931;DHT22;26635;-35.248;149.138;2022-07-25T07:24:17;12.00;90.30
39931;DHT22;26635;-35.248;149.138;2022-07-25T07:26:52;11.90;90.40
39931;DHT22;26635;-35.248;149.138;2022-07-25T07:29:23;11.80;90.70
39931;DHT22;26635;-35.248;149.138;2022-07-25T07:31:54;11.70;90.90
39931;DHT22;26635;-35.248;149.138;2022-07-25T07:34:25;11.60;91.00
39931;DHT22;26635;-35.248;149.138;2022-07-25T07:36:56;11.60;91.20
39931;DHT22;26635;-35.248;149.138;2022-07-25T07:39:27;11.50;91.30
39931;DHT22;26635;-35.248;149.138;2022-07-25T07:41:59;11.50;91.40
39931;DHT22;26635;-35.248;149.138;2022-07-25T07:44:31;11.50;91.30
39931;DHT22;26635;-35.248;149.138;2022-07-25T07:47:01;11.40;91.30
39931;DHT22;26635;-35.248;149.138;2022-07-25T07:49:41;11.30;91.60
39931;DHT22;26635;-35.248;149.138;2022-07-25T07:52:17;11.30;91.80
39931;DHT22;26635;-35.248;149.138;2022-07-25T07:54:48;11.20;91.70
39931;DHT22;26635;-35.248;149.138;2022-07-25T07:57:36;11.10;91.80
39931;DHT22;26635;-35.248;149.138;2022-07-25T08:00:08;11.00;91.90
39931;DHT22;26635;-35.248;149.138;2022-07-25T08:02:49;10.90;92.00
39931;DHT22;26635;-35.248;149.138;2022-07-25T08:05:25;10.80;92.10
39931;DHT22;26635;-35.248;149.138;2022-07-25T08:07:57;10.70;92.20
39931;DHT22;26635;-35.248;149.138;2022-07-25T08:10:31;10.70;92.20
39931;DHT22;26635;-35.248;149.138;2022-07-25T08:13:10;10.50;92.40
39931;DHT22;26635;-35.248;149.138;2022-07-25T08:15:44;10.40;92.60
39931;DHT22;26635;-35.248;149.138;2022-07-25T08:18:16;10.40;92.70
39931;DHT22;26635;-35.248;149.138;2022-07-25T08:20:47;10.30;92.80
39931;DHT22;26635;-35.248;149.138;2022-07-25T08:23:20;10.30;92.70
39931;DHT22;26635;-35.248;149.138;2022-07-25T08:25:51;10.20;92.70
39931;DHT22;26635;-35.248;149.138;2022-07-25T08:28:23;10.10;92.90
39931;DHT22;26635;-35.248;149.138;2022-07-25T08:30:54;10.10;92.90
39931;DHT22;26635;-35.248;149.138;2022-07-25T08:33:25;10.00;92.90
39931;DHT22;26635;-35.248;149.138;2022-07-25T08:35:56;10.00;93.20
39931;DHT22;26635;-35.248;149.138;2022-07-25T08:38:30;9.90;93.40
39931;DHT22;26635;-35.248;149.138;2022-07-25T08:41:03;9.90;93.50
39931;DHT22;26635;-35.248;149.138;2022-07-25T08:43:34;9.90;93.90
39931;DHT22;26635;-35.248;149.138;2022-07-25T08:46:06;9.90;93.90
39931;DHT22;26635;-35.248;149.138;2022-07-25T08:48:37;9.90;94.00
39931;DHT22;26635;-35.248;149.138;2022-07-25T08:51:09;9.90;93.90
39931;DHT22;26635;-35.248;149.138;2022-07-25T08:53:40;9.80;94.00
39931;DHT22;26635;-35.248;149.138;2022-07-25T08:56:15;9.80;94.00
39931;DHT22;26635;-35.248;149.138;2022-07-25T08:58:48;9.70;94.00
39931;DHT22;26635;-35.248;149.138;2022-07-25T09:01:20;9.70;94.00
39931;DHT22;26635;-35.248;149.138;2022-07-25T09:03:51;9.70;94.00
39931;DHT22;26635;-35.248;149.138;2022-07-25T09:06:22;9.70;94.10
39931;DHT22;26635;-35.248;149.138;2022-07-25T09:08:58;9.70;94.10
39931;DHT22;26635;-35.248;149.138;2022-07-25T09:11:35;9.70;94.20
39931;DHT22;26635;-35.248;149.138;2022-07-25T09:14:08;9.70;94.30
39931;DHT22;26635;-35.248;149.138;2022-07-25T09:16:43;9.70;94.20
39931;DHT22;26635;-35.248;149.138;2022-07-25T09:19:19;9.70;94.20
39931;DHT22;26635;-35.248;149.138;2022-07-25T09:22:04;9.60;94.20
39931;DHT22;26635;-35.248;149.138;2022-07-25T09:24:44;9.60;94.10
39931;DHT22;26635;-35.248;149.138;2022-07-25T09:27:15;9.60;94.00
39931;DHT22;26635;-35.248;149.138;2022-07-25T09:29:47;9.50;94.10
39931;DHT22;26635;-35.248;149.138;2022-07-25T09:32:20;9.50;94.10
39931;DHT22;26635;-35.248;149.138;2022-07-25T09:34:51;9.40;94.80
39931;DHT22;26635;-35.248;149.138;2022-07-25T09:37:25;9.40;94.30
39931;DHT22;26635;-35.248;149.138;2022-07-25T09:39:58;9.30;94.20
39931;DHT22;26635;-35.248;149.138;2022-07-25T09:42:31;9.20;94.40
39931;DHT22;26635;-35.248;149.138;2022-07-25T09:45:09;9.20;94.30
39931;DHT22;26635;-35.248;149.138;2022-07-25T09:47:54;9.10;94.30
39931;DHT22;26635;-35.248;149.138;2022-07-25T09:50:28;9.10;94.20
39931;DHT22;26635;-35.248;149.138;2022-07-25T09:53:01;9.00;94.30
39931;DHT22;26635;-35.248;149.138;2022-07-25T09:55:34;9.00;94.20
39931;DHT22;26635;-35.248;149.138;2022-07-25T09:58:05;9.00;94.20
39931;DHT22;26635;-35.248;149.138;2022-07-25T10:00:39;8.90;94.30
39931;DHT22;26635;-35.248;149.138;2022-07-25T10:08:38;8.80;94.40
39931;DHT22;26635;-35.248;149.138;2022-07-25T10:11:20;8.70;94.50
39931;DHT22;26635;-35.248;149.138;2022-07-25T10:13:53;8.60;94.70
39931;DHT22;26635;-35.248;149.138;2022-07-25T10:16:25;8.60;94.80
39931;DHT22;26635;-35.248;149.138;2022-07-25T10:18:58;8.60;94.90
39931;DHT22;26635;-35.248;149.138;2022-07-25T10:21:29;8.60;95.10
39931;DHT22;26635;-35.248;149.138;2022-07-25T10:24:08;8.60;95.10
39931;DHT22;26635;-35.248;149.138;2022-07-25T10:26:51;8.60;95.10
39931;DHT22;26635;-35.248;149.138;2022-07-25T10:29:33;8.60;95.20
39931;DHT22;26635;-35.248;149.138;2022-07-25T10:32:07;8.50;95.30
39931;DHT22;26635;-35.248;149.138;2022-07-25T10:34:39;8.50;95.30
39931;DHT22;26635;-35.248;149.138;2022-07-25T10:37:15;8.50;95.30
39931;DHT22;26635;-35.248;149.138;2022-07-25T10:39:50;8.50;95.30
39931;DHT22;26635;-35.248;149.138;2022-07-25T10:42:21;8.50;95.20
39931;DHT22;26635;-35.248;149.138;2022-07-25T10:44:55;8.40;95.40
39931;DHT22;26635;-35.248;149.138;2022-07-25T10:47:29;8.40;95.00
39931;DHT22;26635;-35.248;149.138;2022-07-25T10:50:09;8.30;95.00
39931;DHT22;26635;-35.248;149.138;2022-07-25T10:53:02;8.20;95.30
39931;DHT22;26635;-35.248;149.138;2022-07-25T10:55:38;8.30;95.30
39931;DHT22;26635;-35.248;149.138;2022-07-25T10:58:09;8.30;95.50
39931;DHT22;26635;-35.248;149.138;2022-07-25T11:00:45;8.20;95.60
39931;DHT22;26635;-35.248;149.138;2022-07-25T11:03:16;8.20;95.40
39931;DHT22;26635;-35.248;149.138;2022-07-25T11:05:47;8.10;95.30
39931;DHT22;26635;-35.248;149.138;2022-07-25T11:08:33;8.10;95.60
39931;DHT22;26635;-35.248;149.138;2022-07-25T11:11:04;8.10;95.30
39931;DHT22;26635;-35.248;149.138;2022-07-25T11:13:42;8.10;95.30
39931;DHT22;26635;-35.248;149.138;2022-07-25T11:16:14;8.00;95.30
39931;DHT22;26635;-35.248;149.138;2022-07-25T11:18:47;8.00;95.30
39931;DHT22;26635;-35.248;149.138;2022-07-25T11:21:18;8.00;95.50
39931;DHT22;26635;-35.248;149.138;2022-07-25T11:23:52;8.00;95.30
39931;DHT22;26635;-35.248;149.138;2022-07-25T11:26:25;7.90;95.40
39931;DHT22;26635;-35.248;149.138;2022-07-25T11:28:55;8.00;95.50
39931;DHT22;26635;-35.248;149.138;2022-07-25T11:31:27;7.90;95.50
39931;DHT22;26635;-35.248;149.138;2022-07-25T11:33:59;7.90;95.50
39931;DHT22;26635;-35.248;149.138;2022-07-25T11:36:30;7.90;95.40
39931;DHT22;26635;-35.248;149.138;2022-07-25T11:39:01;7.90;95.30
39931;DHT22;26635;-35.248;149.138;2022-07-25T11:41:32;7.90;95.30
39931;DHT22;26635;-35.248;149.138;2022-07-25T11:44:03;7.90;95.40
39931;DHT22;26635;-35.248;149.138;2022-07-25T11:46:42;7.90;95.30
39931;DHT22;26635;-35.248;149.138;2022-07-25T11:49:13;7.80;95.20
39931;DHT22;26635;-35.248;149.138;2022-07-25T11:51:44;7.70;95.10
39931;DHT22;26635;-35.248;149.138;2022-07-25T11:54:15;7.70;95.30
39931;DHT22;26635;-35.248;149.138;2022-07-25T11:56:46;7.70;95.30
39931;DHT22;26635;-35.248;149.138;2022-07-25T11:59:17;7.60;95.20
39931;DHT22;26635;-35.248;149.138;2022-07-25T12:01:48;7.50;95.10
39931;DHT22;26635;-35.248;149.138;2022-07-25T12:04:19;7.50;95.30
39931;DHT22;26635;-35.248;149.138;2022-07-25T12:06:52;7.50;95.40
39931;DHT22;26635;-35.248;149.138;2022-07-25T12:09:32;7.40;95.30
39931;DHT22;26635;-35.248;149.138;2022-07-25T12:12:07;7.40;95.20
39931;DHT22;26635;-35.248;149.138;2022-07-25T12:14:43;7.40;95.20
39931;DHT22;26635;-35.248;149.138;2022-07-25T12:17:13;7.30;95.30
39931;DHT22;26635;-35.248;149.138;2022-07-25T12:19:46;7.30;95.40
39931;DHT22;26635;-35.248;149.138;2022-07-25T12:22:17;7.20;95.20
39931;DHT22;26635;-35.248;149.138;2022-07-25T12:24:48;7.20;95.60
39931;DHT22;26635;-35.248;149.138;2022-07-25T12:27:20;7.20;95.30
39931;DHT22;26635;-35.248;149.138;2022-07-25T12:29:51;7.10;95.40
39931;DHT22;26635;-35.248;149.138;2022-07-25T12:32:22;7.10;95.40
39931;DHT22;26635;-35.248;149.138;2022-07-25T12:34:53;7.00;95.70
39931;DHT22;26635;-35.248;149.138;2022-07-25T12:37:25;7.00;95.60
39931;DHT22;26635;-35.248;149.138;2022-07-25T12:39:56;7.00;95.60
39931;DHT22;26635;-35.248;149.138;2022-07-25T12:42:27;7.00;95.50
39931;DHT22;26635;-35.248;149.138;2022-07-25T12:44:58;7.00;95.70
39931;DHT22;26635;-35.248;149.138;2022-07-25T12:47:30;7.00;95.70
39931;DHT22;26635;-35.248;149.138;2022-07-25T12:50:01;6.90;96.00
39931;DHT22;26635;-35.248;149.138;2022-07-25T12:52:33;6.90;95.60
39931;DHT22;26635;-35.248;149.138;2022-07-25T12:55:07;6.90;95.70
39931;DHT22;26635;-35.248;149.138;2022-07-25T12:57:40;6.80;95.80
39931;DHT22;26635;-35.248;149.138;2022-07-25T13:00:13;6.80;95.40
39931;DHT22;26635;-35.248;149.138;2022-07-25T13:02:45;6.80;95.70
39931;DHT22;26635;-35.248;149.138;2022-07-25T13:05:16;6.80;96.00
39931;DHT22;26635;-35.248;149.138;2022-07-25T13:07:47;6.70;95.70
39931;DHT22;26635;-35.248;149.138;2022-07-25T13:10:20;6.70;95.70
39931;DHT22;26635;-35.248;149.138;2022-07-25T13:12:52;6.70;95.50
39931;DHT22;26635;-35.248;149.138;2022-07-25T13:15:23;6.70;95.60
39931;DHT22;26635;-35.248;149.138;2022-07-25T13:17:58;6.60;95.60
39931;DHT22;26635;-35.248;149.138;2022-07-25T13:20:29;6.50;95.80
39931;DHT22;26635;-35.248;149.138;2022-07-25T13:23:01;6.50;95.70
39931;DHT22;26635;-35.248;149.138;2022-07-25T13:25:34;6.50;95.70
39931;DHT22;26635;-35.248;149.138;2022-07-25T13:28:05;6.60;96.00
39931;DHT22;26635;-35.248;149.138;2022-07-25T13:30:38;6.60;96.20
39931;DHT22;26635;-35.248;149.138;2022-07-25T13:33:09;6.60;96.60
39931;DHT22;26635;-35.248;149.138;2022-07-25T13:35:41;6.60;96.40
39931;DHT22;26635;-35.248;149.138;2022-07-25T13:38:13;6.70;96.00
39931;DHT22;26635;-35.248;149.138;2022-07-25T13:40:51;6.60;95.80
39931;DHT22;26635;-35.248;149.138;2022-07-25T13:43:25;6.60;96.00
39931;DHT22;26635;-35.248;149.138;2022-07-25T13:45:57;6.60;96.10
39931;DHT22;26635;-35.248;149.138;2022-07-25T13:48:29;6.60;96.20
39931;DHT22;26635;-35.248;149.138;2022-07-25T13:51:01;6.60;96.30
39931;DHT22;26635;-35.248;149.138;2022-07-25T13:53:35;6.70;96.50
39931;DHT22;26635;-35.248;149.138;2022-07-25T13:56:06;6.70;96.70
39931;DHT22;26635;-35.248;149.138;2022-07-25T13:58:39;6.70;96.60
39931;DHT22;26635;-35.248;149.138;2022-07-25T14:01:14;6.80;96.60
39931;DHT22;26635;-35.248;149.138;2022-07-25T14:03:46;6.80;96.80
39931;DHT22;26635;-35.248;149.138;2022-07-25T14:06:17;6.90;96.70
39931;DHT22;26635;-35.248;149.138;2022-07-25T14:08:48;6.90;96.60
39931;DHT22;26635;-35.248;149.138;2022-07-25T14:11:20;6.90;96.90
39931;DHT22;26635;-35.248;149.138;2022-07-25T14:13:57;6.90;96.90
39931;DHT22;26635;-35.248;149.138;2022-07-25T14:16:28;7.00;96.90
39931;DHT22;26635;-35.248;149.138;2022-07-25T14:19:00;7.00;97.00
39931;DHT22;26635;-35.248;149.138;2022-07-25T14:21:33;7.00;96.90
39931;DHT22;26635;-35.248;149.138;2022-07-25T14:24:05;7.00;96.60
39931;DHT22;26635;-35.248;149.138;2022-07-25T14:26:36;7.10;96.60
39931;DHT22;26635;-35.248;149.138;2022-07-25T14:29:09;7.20;96.80
39931;DHT22;26635;-35.248;149.138;2022-07-25T14:31:40;7.20;97.40
39931;DHT22;26635;-35.248;149.138;2022-07-25T14:34:12;7.20;97.00
39931;DHT22;26635;-35.248;149.138;2022-07-25T14:36:46;7.30;97.00
39931;DHT22;26635;-35.248;149.138;2022-07-25T14:39:17;7.30;97.00
39931;DHT22;26635;-35.248;149.138;2022-07-25T14:41:48;7.40;96.80
39931;DHT22;26635;-35.248;149.138;2022-07-25T14:44:19;7.40;97.00
39931;DHT22;26635;-35.248;149.138;2022-07-25T14:46:50;7.40;96.90
39931;DHT22;26635;-35.248;149.138;2022-07-25T14:49:23;7.40;96.80
39931;DHT22;26635;-35.248;149.138;2022-07-25T14:51:55;7.50;97.00
39931;DHT22;26635;-35.248;149.138;2022-07-25T14:54:27;7.60;97.60
39931;DHT22;26635;-35.248;149.138;2022-07-25T14:56:58;7.60;97.50
39931;DHT22;26635;-35.248;149.138;2022-07-25T14:59:30;7.60;97.30
39931;DHT22;26635;-35.248;149.138;2022-07-25T15:02:01;7.60;97.20
39931;DHT22;26635;-35.248;149.138;2022-07-25T15:04:34;7.60;97.20
39931;DHT22;26635;-35.248;149.138;2022-07-25T15:07:05;7.70;97.30
39931;DHT22;26635;-35.248;149.138;2022-07-25T15:09:37;7.60;97.10
39931;DHT22;26635;-35.248;149.138;2022-07-25T15:12:09;7.60;97.20
39931;DHT22;26635;-35.248;149.138;2022-07-25T15:14:44;7.70;97.50
39931;DHT22;26635;-35.248;149.138;2022-07-25T15:17:15;7.70;97.40
39931;DHT22;26635;-35.248;149.138;2022-07-25T15:19:46;7.70;97.50
39931;DHT22;26635;-35.248;149.138;2022-07-25T15:22:19;7.70;97.60
39931;DHT22;26635;-35.248;149.138;2022-07-25T15:24:50;7.70;97.90
39931;DHT22;26635;-35.248;149.138;2022-07-25T15:27:41;7.70;98.00
39931;DHT22;26635;-35.248;149.138;2022-07-25T15:30:12;7.80;97.90
39931;DHT22;26635;-35.248;149.138;2022-07-25T15:32:43;7.80;97.80
39931;DHT22;26635;-35.248;149.138;2022-07-25T15:35:17;7.80;97.80
39931;DHT22;26635;-35.248;149.138;2022-07-25T15:37:48;7.80;97.80
39931;DHT22;26635;-35.248;149.138;2022-07-25T15:40:20;7.80;98.10
39931;DHT22;26635;-35.248;149.138;2022-07-25T15:42:51;7.80;98.20
39931;DHT22;26635;-35.248;149.138;2022-07-25T15:45:21;7.80;98.40
39931;DHT22;26635;-35.248;149.138;2022-07-25T15:48:01;7.90;98.50
39931;DHT22;26635;-35.248;149.138;2022-07-25T15:50:34;7.90;99.00
39931;DHT22;26635;-35.248;149.138;2022-07-25T15:53:06;7.90;99.00
39931;DHT22;26635;-35.248;149.138;2022-07-25T15:55:37;7.90;99.00